createdAt,value
2023-03-11T00:00:55.286Z,15.15
2023-03-11T00:03:24.980Z,15.35
2023-03-11T00:05:53.632Z,16.38
2023-03-11T00:08:23.271Z,13.73
2023-03-11T00:10:55.285Z,16.80
2023-03-11T00:13:22.496Z,14.30
2023-03-11T00:15:51.569Z,14.57
2023-03-11T00:18:18.617Z,15.60
2023-03-11T00:20:46.937Z,13.13
2023-03-11T00:23:15.181Z,15.40
2023-03-11T00:25:43.776Z,14.30
2023-03-11T00:28:13.509Z,13.40
2023-03-11T00:30:42.700Z,13.38
2023-03-11T00:33:11.677Z,13.40
2023-03-11T00:35:41.176Z,14.85
2023-03-11T00:38:11.828Z,14.73
2023-03-11T00:40:39.075Z,13.88
2023-03-11T00:43:05.628Z,14.20
2023-03-11T00:45:32.656Z,14.48
2023-03-11T00:47:59.507Z,13.75
2023-03-11T00:50:32.577Z,12.82
2023-03-11T00:52:59.945Z,14.27
2023-03-11T00:55:29.115Z,14.20
2023-03-11T00:57:58.214Z,15.90
2023-03-11T01:00:27.842Z,14.30
2023-03-11T01:02:55.862Z,13.48
2023-03-11T01:05:26.259Z,14.32
2023-03-11T01:07:52.904Z,15.07
2023-03-11T01:10:20.145Z,14.40
2023-03-11T01:12:46.738Z,14.85
2023-03-11T01:15:26.207Z,16.17
2023-03-11T01:17:52.754Z,14.23
2023-03-11T01:20:19.396Z,15.77
2023-03-11T01:22:46.020Z,15.57
2023-03-11T01:25:18.269Z,13.95
2023-03-11T01:27:45.006Z,13.65
2023-03-11T01:30:15.239Z,12.50
2023-03-11T01:32:42.038Z,10.77
2023-03-11T01:35:11.594Z,11.45
2023-03-11T01:37:38.187Z,9.60
2023-03-11T01:40:06.179Z,9.52
2023-03-11T01:42:32.780Z,6.88
2023-03-11T01:44:59.421Z,6.20
2023-03-11T01:47:37.736Z,5.88
2023-03-11T01:50:07.784Z,5.95
2023-03-11T01:52:34.433Z,5.30
2023-03-11T01:55:01.285Z,4.30
2023-03-11T01:57:27.960Z,3.53
2023-03-11T01:59:57.861Z,2.78
2023-03-11T02:02:42.447Z,3.78
2023-03-11T02:05:09.641Z,3.00
2023-03-11T02:07:38.677Z,1.77
2023-03-11T02:10:07.356Z,2.03
2023-03-11T02:12:35.605Z,1.88
2023-03-11T02:15:03.526Z,1.65
2023-03-11T02:17:31.815Z,2.38
2023-03-11T02:20:17.041Z,2.45
2023-03-11T02:22:44.798Z,1.45
2023-03-11T02:25:18.910Z,2.53
2023-03-11T02:27:47.722Z,2.20
2023-03-11T02:30:15.757Z,2.08
2023-03-11T02:32:44.666Z,2.28
2023-03-11T02:35:11.310Z,2.38
2023-03-11T02:37:44.160Z,2.72
2023-03-11T02:40:38.748Z,3.35
2023-03-11T02:43:11.278Z,2.90
2023-03-11T02:45:40.137Z,3.67
2023-03-11T02:48:09.471Z,3.85
2023-03-11T02:50:37.332Z,3.42
2023-03-11T02:53:05.885Z,5.10
2023-03-11T02:55:32.633Z,4.38
2023-03-11T02:58:00.071Z,4.22
2023-03-11T03:00:27.106Z,5.65
2023-03-11T03:03:00.515Z,4.82
2023-03-11T03:05:28.306Z,4.63
2023-03-11T03:07:56.648Z,5.18
2023-03-11T03:10:24.928Z,5.10
2023-03-11T03:12:51.515Z,5.97
2023-03-11T03:15:18.059Z,5.45
2023-03-11T03:17:46.239Z,4.88
2023-03-11T03:20:14.253Z,6.05
2023-03-11T03:22:45.573Z,5.32
2023-03-11T03:25:15.223Z,5.85
2023-03-11T03:27:41.851Z,8.05
2023-03-11T03:30:09.671Z,6.20
2023-03-11T03:32:36.771Z,9.07
2023-03-11T03:35:05.090Z,5.72
2023-03-11T03:37:49.882Z,7.45
2023-03-11T03:40:16.664Z,7.22
2023-03-11T03:42:43.486Z,6.97
2023-03-11T03:45:10.619Z,9.00
2023-03-11T03:47:37.298Z,6.50
2023-03-11T03:50:08.459Z,8.48
2023-03-11T03:52:36.386Z,8.05
2023-03-11T03:55:03.921Z,7.40
2023-03-11T03:57:30.518Z,6.03
2023-03-11T03:59:57.154Z,6.60
2023-03-11T04:02:23.924Z,6.93
2023-03-11T04:04:51.706Z,6.50
2023-03-11T04:07:18.334Z,6.60
2023-03-11T04:09:44.919Z,5.90
2023-03-11T04:12:15.423Z,5.78
2023-03-11T04:14:42.389Z,5.72
2023-03-11T04:17:11.642Z,6.00
2023-03-11T04:19:38.304Z,5.00
2023-03-11T04:22:05.424Z,4.85
2023-03-11T04:24:32.395Z,5.07
2023-03-11T04:26:59.139Z,4.93
2023-03-11T04:29:25.862Z,3.75
2023-03-11T04:31:53.717Z,4.97
2023-03-11T04:34:20.426Z,2.85
2023-03-11T04:36:47.019Z,3.28
2023-03-11T04:39:15.914Z,4.07
2023-03-11T04:41:44.104Z,4.20
2023-03-11T04:44:14.905Z,3.63
2023-03-11T04:46:41.691Z,4.20
2023-03-11T04:49:10.426Z,3.83
2023-03-11T04:51:37.577Z,7.50
2023-03-11T04:54:05.202Z,3.60
2023-03-11T04:56:31.850Z,3.10
2023-03-11T04:58:58.759Z,3.45
2023-03-11T05:01:26.376Z,4.18
2023-03-11T05:03:53.082Z,5.28
2023-03-11T05:06:19.799Z,4.53
2023-03-11T05:08:47.051Z,4.43
2023-03-11T05:11:13.751Z,3.85
2023-03-11T05:13:42.233Z,4.28
2023-03-11T05:16:10.078Z,3.88
2023-03-11T05:18:36.915Z,4.53
2023-03-11T05:21:03.729Z,4.25
2023-03-11T05:23:32.478Z,4.18
2023-03-11T05:25:59.871Z,4.90
2023-03-11T05:28:27.036Z,4.65
2023-03-11T05:30:54.894Z,4.47
2023-03-11T05:33:22.012Z,5.75
2023-03-11T05:35:51.979Z,4.13
2023-03-11T05:38:19.630Z,4.13
2023-03-11T05:40:46.526Z,3.90
2023-03-11T05:43:13.264Z,4.00
2023-03-11T05:45:42.689Z,3.38
2023-03-11T05:48:10.306Z,5.93
2023-03-11T05:50:38.109Z,3.67
2023-03-11T05:53:06.218Z,5.53
2023-03-11T05:55:32.802Z,4.95
2023-03-11T05:58:00.137Z,5.05
2023-03-11T06:00:29.383Z,5.40
2023-03-11T06:03:00.900Z,5.60
2023-03-11T06:05:27.872Z,4.25
2023-03-11T06:07:55.923Z,6.00
2023-03-11T06:10:23.215Z,6.20
2023-03-11T06:12:49.804Z,7.32
2023-03-11T06:15:22.174Z,7.05
2023-03-11T06:17:49.077Z,6.35
2023-03-11T06:20:15.659Z,7.85
2023-03-11T06:22:42.788Z,6.65
2023-03-11T06:25:10.004Z,7.50
2023-03-11T06:27:38.440Z,7.80
2023-03-11T06:30:07.029Z,8.77
2023-03-11T06:32:40.014Z,8.85
2023-03-11T06:35:08.209Z,11.13
2023-03-11T06:37:36.383Z,11.35
2023-03-11T06:40:05.409Z,10.75
2023-03-11T06:42:32.051Z,9.23
2023-03-11T06:44:58.765Z,10.10
2023-03-11T06:47:25.737Z,11.13
2023-03-11T06:49:52.651Z,11.07
2023-03-11T06:52:19.546Z,9.57
2023-03-11T06:54:46.676Z,9.10
2023-03-11T06:57:16.829Z,11.98
2023-03-11T06:59:45.191Z,10.35
2023-03-11T07:02:15.046Z,10.57
2023-03-11T07:04:42.825Z,10.70
2023-03-11T07:07:09.394Z,9.32
2023-03-11T07:09:36.110Z,8.65
2023-03-11T07:12:06.618Z,9.30
2023-03-11T07:14:35.832Z,11.57
2023-03-11T07:17:03.578Z,8.25
2023-03-11T07:19:41.914Z,10.05
2023-03-11T07:22:08.459Z,10.75
2023-03-11T07:24:35.085Z,8.85
2023-03-11T07:27:01.843Z,11.13
2023-03-11T07:29:28.450Z,9.18
2023-03-11T07:31:56.161Z,9.95
2023-03-11T07:34:22.777Z,11.60
2023-03-11T07:36:49.418Z,8.15
2023-03-11T07:39:17.851Z,10.57
2023-03-11T07:41:44.873Z,8.07
2023-03-11T07:44:15.947Z,12.25
2023-03-11T07:46:42.890Z,9.30
2023-03-11T07:49:09.590Z,9.38
2023-03-11T07:51:37.146Z,10.00
2023-03-11T07:54:04.418Z,11.27
2023-03-11T07:56:33.935Z,12.70
2023-03-11T07:59:01.816Z,12.13
2023-03-11T08:01:36.649Z,10.27
2023-03-11T08:04:05.147Z,10.95
2023-03-11T08:06:32.953Z,12.35
2023-03-11T08:09:00.581Z,12.23
2023-03-11T08:11:27.713Z,11.27
2023-03-11T08:13:55.403Z,9.73
2023-03-11T08:16:22.735Z,15.40
2023-03-11T08:18:50.362Z,11.85
2023-03-11T08:21:27.109Z,12.48
2023-03-11T08:23:57.377Z,11.60
2023-03-11T08:26:24.044Z,11.90
2023-03-11T08:28:50.730Z,9.82
2023-03-11T08:31:22.373Z,10.82
2023-03-11T08:33:50.325Z,12.05
2023-03-11T08:36:17.478Z,13.68
2023-03-11T08:38:44.344Z,9.38
2023-03-11T08:41:10.909Z,9.48
2023-03-11T08:43:37.501Z,14.18
2023-03-11T08:46:06.864Z,9.52
2023-03-11T08:48:34.496Z,10.23
2023-03-11T08:51:01.201Z,13.63
2023-03-11T08:53:27.782Z,9.88
2023-03-11T08:55:54.565Z,9.18
2023-03-11T08:58:21.151Z,10.05
2023-03-11T09:00:48.088Z,10.40
2023-03-11T09:03:14.655Z,9.93
2023-03-11T09:05:41.706Z,10.85
2023-03-11T09:08:08.362Z,9.32
2023-03-11T09:10:34.975Z,9.10
2023-03-11T09:13:01.549Z,9.48
2023-03-11T09:15:28.217Z,10.75
2023-03-11T09:17:55.847Z,11.00
2023-03-11T09:20:22.868Z,11.43
2023-03-11T09:22:49.475Z,12.68
2023-03-11T09:25:16.108Z,11.05
2023-03-11T09:27:43.182Z,12.52
2023-03-11T09:30:10.604Z,13.70
2023-03-11T09:32:37.547Z,14.10
2023-03-11T09:35:04.712Z,11.98
2023-03-11T09:37:31.387Z,12.02
2023-03-11T09:39:58.031Z,12.80
2023-03-11T09:42:30.072Z,14.55
2023-03-11T09:45:15.937Z,11.95
2023-03-11T09:47:59.018Z,12.60
2023-03-11T09:50:38.335Z,13.45
2023-03-11T09:53:33.822Z,13.95
2023-03-11T09:56:02.804Z,10.82
2023-03-11T09:58:37.297Z,12.32
2023-03-11T10:01:14.588Z,14.18
2023-03-11T10:03:41.374Z,11.80
2023-03-11T10:06:14.688Z,11.52
2023-03-11T10:08:53.050Z,11.75
2023-03-11T10:11:57.299Z,12.73
2023-03-11T10:14:53.300Z,13.65
2023-03-11T10:17:45.770Z,12.10
2023-03-11T10:20:13.126Z,13.82
2023-03-11T10:23:07.899Z,14.32
2023-03-11T10:25:53.646Z,14.48
2023-03-11T10:28:22.883Z,15.23
2023-03-11T10:30:56.475Z,13.95
2023-03-11T10:33:46.535Z,14.82
2023-03-11T10:36:19.520Z,16.02
2023-03-11T10:38:48.065Z,17.15
2023-03-11T10:41:43.079Z,16.55
2023-03-11T10:44:20.214Z,16.13
2023-03-11T10:46:47.557Z,14.55
2023-03-11T10:49:15.749Z,17.15
2023-03-11T10:51:45.818Z,18.13
2023-03-11T10:54:48.808Z,16.90
2023-03-11T10:57:30.471Z,16.58
2023-03-11T10:59:59.174Z,15.35
2023-03-11T11:02:32.648Z,15.80
2023-03-11T11:05:17.653Z,13.90
2023-03-11T11:08:05.037Z,14.13
2023-03-11T11:10:32.077Z,14.88
2023-03-11T11:13:04.045Z,15.00
2023-03-11T11:15:33.115Z,15.40
2023-03-11T11:18:21.717Z,12.70
2023-03-11T11:21:18.036Z,12.50
2023-03-11T11:23:48.752Z,16.52
2023-03-11T11:26:19.730Z,13.68
2023-03-11T11:28:46.540Z,12.85
2023-03-11T11:31:24.915Z,12.93
2023-03-11T11:33:53.949Z,17.05
2023-03-11T11:36:24.350Z,14.57
2023-03-11T11:38:57.453Z,16.25
2023-03-11T11:41:26.419Z,13.73
2023-03-11T11:43:55.680Z,13.25
2023-03-11T11:46:31.456Z,13.75
2023-03-11T11:49:25.731Z,16.83
2023-03-11T11:51:58.082Z,13.18
2023-03-11T11:54:35.067Z,16.48
2023-03-11T11:57:10.550Z,12.73
2023-03-11T11:59:37.145Z,13.70
2023-03-11T12:02:16.449Z,11.55
2023-03-11T12:04:54.816Z,13.25
2023-03-11T12:07:39.860Z,13.70
2023-03-11T12:10:22.904Z,14.50
2023-03-11T12:12:53.894Z,10.65
2023-03-11T12:15:24.768Z,11.98
2023-03-11T12:17:53.349Z,10.85
2023-03-11T12:20:44.587Z,9.93
2023-03-11T12:23:19.436Z,9.43
2023-03-11T12:26:13.863Z,10.98
2023-03-11T12:29:02.230Z,8.85
2023-03-11T12:31:31.606Z,9.85
2023-03-11T12:34:02.345Z,9.32
2023-03-11T12:36:34.244Z,9.27
2023-03-11T12:39:05.693Z,9.80
2023-03-11T12:41:33.943Z,8.75
2023-03-11T12:44:02.369Z,8.23
2023-03-11T12:46:53.876Z,10.23
2023-03-11T12:49:33.473Z,8.85
2023-03-11T12:52:09.110Z,7.40
2023-03-11T12:54:37.384Z,7.90
2023-03-11T12:57:16.136Z,7.43
2023-03-11T13:00:09.781Z,7.32
2023-03-11T13:03:06.142Z,6.65
2023-03-11T13:05:41.881Z,5.32
2023-03-11T13:08:28.686Z,8.27
2023-03-11T13:10:56.510Z,5.70
2023-03-11T13:13:22.969Z,6.85
2023-03-11T13:15:50.642Z,6.30
2023-03-11T13:18:33.504Z,6.78
2023-03-11T13:21:01.720Z,6.75
2023-03-11T13:23:31.624Z,6.13
2023-03-11T13:26:23.206Z,5.68
2023-03-11T13:29:02.940Z,6.13
2023-03-11T13:31:54.645Z,5.40
2023-03-11T13:34:42.826Z,5.93
2023-03-11T13:37:20.999Z,6.80
2023-03-11T13:39:55.104Z,9.20
2023-03-11T13:42:32.350Z,9.25
2023-03-11T13:44:59.776Z,9.13
2023-03-11T13:47:27.271Z,9.38
2023-03-11T13:50:14.709Z,10.27
2023-03-11T13:52:49.304Z,10.38
2023-03-11T13:55:25.778Z,11.27
2023-03-11T13:57:54.875Z,9.00
2023-03-11T14:00:28.556Z,9.45
2023-03-11T14:03:01.529Z,9.65
2023-03-11T14:05:32.644Z,9.57
2023-03-11T14:08:12.496Z,9.98
2023-03-11T14:10:59.739Z,10.48
2023-03-11T14:13:28.942Z,11.35
2023-03-11T14:16:03.580Z,8.15
2023-03-11T14:18:36.315Z,8.93
2023-03-11T14:21:04.814Z,8.02
2023-03-11T14:23:48.865Z,6.45
2023-03-11T14:26:18.731Z,6.88
2023-03-11T14:28:48.606Z,8.65
2023-03-11T14:31:34.470Z,7.65
2023-03-11T14:34:07.707Z,7.55
2023-03-11T14:36:45.628Z,6.57
2023-03-11T14:39:27.411Z,6.90
2023-03-11T14:41:58.079Z,6.32
2023-03-11T14:44:27.304Z,5.28
2023-03-11T14:46:59.130Z,4.50
2023-03-11T14:49:25.964Z,5.28
2023-03-11T14:51:59.146Z,5.70
2023-03-11T14:54:29.258Z,5.15
2023-03-11T14:57:03.093Z,4.22
2023-03-11T14:59:32.417Z,6.38
2023-03-11T15:02:13.568Z,8.05
2023-03-11T15:04:44.240Z,6.28
2023-03-11T15:07:11.061Z,6.60
2023-03-11T15:09:40.275Z,5.80
2023-03-11T15:12:07.044Z,5.22
2023-03-11T15:14:35.455Z,5.38
2023-03-11T15:17:38.391Z,4.85
2023-03-11T15:20:33.089Z,4.47
2023-03-11T15:23:04.519Z,4.63
2023-03-11T15:25:34.199Z,5.72
2023-03-11T15:28:19.386Z,5.28
2023-03-11T15:30:46.067Z,5.55
2023-03-11T15:33:33.182Z,6.15
2023-03-11T15:35:59.865Z,4.40
2023-03-11T15:38:28.521Z,6.88
2023-03-11T15:41:01.077Z,4.85
2023-03-11T15:43:43.603Z,3.97
2023-03-11T15:46:11.195Z,3.97
2023-03-11T15:48:37.987Z,3.85
2023-03-11T15:51:04.691Z,5.03
2023-03-11T15:53:31.405Z,5.03
2023-03-11T15:56:08.155Z,5.60
2023-03-11T15:58:37.133Z,5.88
2023-03-11T16:01:04.152Z,4.40
2023-03-11T16:03:31.545Z,4.00
2023-03-11T16:05:58.452Z,3.25
2023-03-11T16:08:25.174Z,4.95
2023-03-11T16:10:51.745Z,3.10
2023-03-11T16:13:18.401Z,4.35
2023-03-11T16:15:47.014Z,4.00
2023-03-11T16:18:13.987Z,3.70
2023-03-11T16:21:02.298Z,3.90
2023-03-11T16:23:41.643Z,6.20
2023-03-11T16:26:18.064Z,3.97
2023-03-11T16:28:44.658Z,9.07
2023-03-11T16:31:11.247Z,3.13
2023-03-11T16:33:38.115Z,5.30
2023-03-11T16:36:05.520Z,4.63
2023-03-11T16:38:41.725Z,7.50
2023-03-11T16:41:08.404Z,4.93
2023-03-11T16:43:35.066Z,6.65
2023-03-11T16:46:01.681Z,4.22
2023-03-11T16:48:28.382Z,6.32
2023-03-11T16:50:54.964Z,4.60
2023-03-11T16:53:22.056Z,4.57
2023-03-11T16:55:48.840Z,4.72
2023-03-11T16:58:15.660Z,7.53
2023-03-11T17:00:42.463Z,3.25
2023-03-11T17:03:11.998Z,4.25
2023-03-11T17:05:38.574Z,6.55
2023-03-11T17:08:05.482Z,4.95
2023-03-11T17:10:43.585Z,4.53
2023-03-11T17:13:14.016Z,5.40
2023-03-11T17:15:44.331Z,3.90
2023-03-11T17:18:11.998Z,6.00
2023-03-11T17:20:40.045Z,4.68
2023-03-11T17:23:06.749Z,9.88
2023-03-11T17:25:33.381Z,6.65
2023-03-11T17:28:00.117Z,6.47
2023-03-11T17:30:36.509Z,3.40
2023-03-11T17:33:03.988Z,4.97
2023-03-11T17:35:30.576Z,5.07
2023-03-11T17:37:57.251Z,6.97
2023-03-11T17:40:23.954Z,5.15
2023-03-11T17:42:50.710Z,6.47
2023-03-11T17:45:17.284Z,5.80
2023-03-11T17:47:44.165Z,4.85
2023-03-11T17:50:11.865Z,5.15
2023-03-11T17:52:38.480Z,4.97
2023-03-11T17:55:05.487Z,4.18
2023-03-11T17:57:44.472Z,5.68
2023-03-11T18:00:14.426Z,3.92
2023-03-11T18:02:40.979Z,8.48
2023-03-11T18:05:09.262Z,4.03
2023-03-11T18:07:39.059Z,5.57
2023-03-11T18:10:07.532Z,7.50
2023-03-11T18:12:34.171Z,6.93
2023-03-11T18:15:04.314Z,3.88
2023-03-11T18:17:30.938Z,6.38
2023-03-11T18:19:59.625Z,6.68
2023-03-11T18:22:26.863Z,3.10
2023-03-11T18:24:53.649Z,6.55
2023-03-11T18:27:20.292Z,6.97
2023-03-11T18:29:47.016Z,4.82
2023-03-11T18:32:13.563Z,5.22
2023-03-11T18:34:40.534Z,6.25
2023-03-11T18:37:07.414Z,4.78
2023-03-11T18:39:34.132Z,6.00
2023-03-11T18:42:00.821Z,5.97
2023-03-11T18:44:27.941Z,7.40
2023-03-11T18:46:54.561Z,6.28
2023-03-11T18:49:21.123Z,5.97
2023-03-11T18:51:47.706Z,6.28
2023-03-11T18:54:14.285Z,7.22
2023-03-11T18:56:44.130Z,5.15
2023-03-11T18:59:12.199Z,5.35
2023-03-11T19:01:38.999Z,6.63
2023-03-11T19:04:06.013Z,7.68
2023-03-11T19:06:32.792Z,4.68
2023-03-11T19:08:59.413Z,5.50
2023-03-11T19:11:26.492Z,7.80
2023-03-11T19:13:53.172Z,6.70
2023-03-11T19:16:22.359Z,5.70
2023-03-11T19:18:49.077Z,6.20
2023-03-11T19:21:16.628Z,6.57
2023-03-11T19:23:44.668Z,4.65
2023-03-11T19:26:11.426Z,4.60
2023-03-11T19:28:38.043Z,7.55
2023-03-11T19:31:05.232Z,4.50
2023-03-11T19:33:32.573Z,3.35
2023-03-11T19:36:01.673Z,5.13
2023-03-11T19:38:29.068Z,7.88
2023-03-11T19:41:11.274Z,5.95
2023-03-11T19:43:38.154Z,3.38
2023-03-11T19:46:05.606Z,5.47
2023-03-11T19:48:32.304Z,6.80
2023-03-11T19:50:59.173Z,6.07
2023-03-11T19:53:26.349Z,4.75
2023-03-11T19:55:55.569Z,4.05
2023-03-11T19:58:23.910Z,4.63
2023-03-11T20:00:51.028Z,5.18
2023-03-11T20:03:19.047Z,5.15
2023-03-11T20:05:46.664Z,6.90
2023-03-11T20:08:15.363Z,5.78
2023-03-11T20:10:45.542Z,7.00
2023-03-11T20:13:13.677Z,4.63
2023-03-11T20:15:40.400Z,6.60
2023-03-11T20:18:07.260Z,6.55
2023-03-11T20:20:34.562Z,4.53
2023-03-11T20:23:02.298Z,6.55
2023-03-11T20:25:32.387Z,5.85
2023-03-11T20:27:59.941Z,6.25
2023-03-11T20:30:27.082Z,6.35
2023-03-11T20:32:54.406Z,6.25
2023-03-11T20:35:21.798Z,6.10
2023-03-11T20:37:48.483Z,6.15
2023-03-11T20:40:16.430Z,5.28
2023-03-11T20:42:46.876Z,4.32
2023-03-11T20:45:16.322Z,8.18
2023-03-11T20:47:44.476Z,3.28
2023-03-11T20:50:14.740Z,5.07
2023-03-11T20:52:41.478Z,6.78
2023-03-11T20:55:10.211Z,3.47
2023-03-11T20:57:37.666Z,3.55
2023-03-11T21:00:11.514Z,5.38
2023-03-11T21:02:43.085Z,5.60
2023-03-11T21:05:11.174Z,3.90
2023-03-11T21:07:38.103Z,6.18
2023-03-11T21:10:06.864Z,4.45
2023-03-11T21:12:33.526Z,4.60
2023-03-11T21:15:00.217Z,6.32
2023-03-11T21:17:26.976Z,7.03
2023-03-11T21:19:53.549Z,13.15
2023-03-11T21:22:20.218Z,3.42
2023-03-11T21:24:54.163Z,8.50
2023-03-11T21:27:26.305Z,2.85
2023-03-11T21:29:54.085Z,6.03
2023-03-11T21:32:21.300Z,6.07
2023-03-11T21:34:48.142Z,6.03
2023-03-11T21:37:14.878Z,6.38
2023-03-11T21:39:41.672Z,4.25
2023-03-11T21:42:08.388Z,4.50
2023-03-11T21:44:35.062Z,4.72
2023-03-11T21:47:01.951Z,9.32
2023-03-11T21:49:28.915Z,3.17
2023-03-11T21:51:55.617Z,4.30
2023-03-11T21:54:22.399Z,6.75
2023-03-11T21:56:49.079Z,6.75
2023-03-11T21:59:15.813Z,5.40
2023-03-11T22:01:42.642Z,3.65
2023-03-11T22:04:09.782Z,5.45
2023-03-11T22:06:36.536Z,5.85
2023-03-11T22:09:03.763Z,5.40
2023-03-11T22:11:30.496Z,2.85
2023-03-11T22:13:59.263Z,4.80
2023-03-11T22:16:26.251Z,4.10
2023-03-11T22:18:53.610Z,5.97
2023-03-11T22:21:23.353Z,7.13
2023-03-11T22:23:50.257Z,7.75
2023-03-11T22:26:16.815Z,4.10
2023-03-11T22:28:43.541Z,5.00
2023-03-11T22:31:12.163Z,5.28
2023-03-11T22:33:39.834Z,4.57
2023-03-11T22:36:07.849Z,4.07
2023-03-11T22:38:34.688Z,7.72
2023-03-11T22:41:04.558Z,3.20
2023-03-11T22:43:31.128Z,6.10
2023-03-11T22:45:57.712Z,3.90
2023-03-11T22:48:24.338Z,6.75
2023-03-11T22:50:51.030Z,4.93
2023-03-11T22:53:17.588Z,2.03
2023-03-11T22:55:44.668Z,5.82
2023-03-11T22:58:11.682Z,4.55
2023-03-11T23:00:38.768Z,4.55
2023-03-11T23:03:05.654Z,5.07
2023-03-11T23:05:32.264Z,4.82
2023-03-11T23:07:58.863Z,6.35
2023-03-11T23:10:25.410Z,3.38
2023-03-11T23:12:51.969Z,3.20
2023-03-11T23:15:19.113Z,5.25
2023-03-11T23:17:45.686Z,2.90
2023-03-11T23:20:14.287Z,7.18
2023-03-11T23:22:42.006Z,6.50
2023-03-11T23:25:11.872Z,2.83
2023-03-11T23:27:38.479Z,4.18
2023-03-11T23:30:05.762Z,3.38
2023-03-11T23:32:32.321Z,4.30
2023-03-11T23:34:58.953Z,4.07
2023-03-11T23:37:25.494Z,4.97
2023-03-11T23:39:52.042Z,4.15
2023-03-11T23:42:25.514Z,5.47
2023-03-11T23:44:52.757Z,7.85
2023-03-11T23:47:19.445Z,3.33
2023-03-11T23:49:46.033Z,3.45
2023-03-11T23:52:12.595Z,5.45
2023-03-11T23:54:39.178Z,6.95
2023-03-11T23:57:05.802Z,4.90
2023-03-11T23:59:32.351Z,4.05
